createdAt,value
2017-12-21T00:00:20.860Z,20.17
2017-12-21T00:02:49.403Z,20.60
2017-12-21T00:05:17.891Z,28.13
2017-12-21T00:07:46.293Z,25.40
2017-12-21T00:10:14.824Z,22.33
2017-12-21T00:12:43.257Z,30.17
2017-12-21T00:15:11.723Z,22.73
2017-12-21T00:17:40.359Z,16.27
2017-12-21T00:20:08.787Z,27.47
2017-12-21T00:22:41.296Z,23.23
2017-12-21T00:25:10.469Z,26.70
2017-12-21T00:27:38.871Z,29.90
2017-12-21T00:30:08.586Z,25.30
2017-12-21T00:32:39.468Z,17.90
2017-12-21T00:35:08.696Z,29.53
2017-12-21T00:37:38.855Z,25.70
2017-12-21T00:40:07.330Z,25.10
2017-12-21T00:42:35.828Z,35.23
2017-12-21T00:45:04.296Z,25.60
2017-12-21T00:47:32.683Z,39.97
2017-12-21T00:50:01.077Z,33.90
2017-12-21T00:52:29.534Z,35.10
2017-12-21T00:54:58.751Z,36.83
2017-12-21T00:57:27.213Z,36.10
2017-12-21T00:59:55.700Z,10.93
2017-12-21T01:02:24.102Z,13.47
2017-12-21T01:04:52.515Z,39.37
2017-12-21T01:07:21.119Z,33.40
2017-12-21T01:09:50.294Z,44.60
2017-12-21T01:12:18.668Z,27.60
2017-12-21T01:14:47.145Z,37.43
2017-12-21T01:17:15.531Z,46.07
2017-12-21T01:19:43.982Z,31.03
2017-12-21T01:22:12.834Z,40.77
2017-12-21T01:24:42.081Z,30.30
2017-12-21T01:27:10.486Z,33.17
2017-12-21T01:29:38.953Z,31.63
2017-12-21T01:32:07.542Z,36.10
2017-12-21T01:34:35.955Z,42.27
2017-12-21T01:37:05.187Z,40.97
2017-12-21T01:39:33.606Z,42.10
2017-12-21T01:42:02.997Z,43.73
2017-12-21T01:44:32.055Z,37.70
2017-12-21T01:47:00.472Z,43.43
2017-12-21T01:49:28.850Z,31.17
2017-12-21T01:51:57.502Z,41.87
2017-12-21T01:54:25.899Z,22.33
2017-12-21T01:56:54.323Z,33.60
2017-12-21T01:59:23.583Z,30.77
2017-12-21T02:01:51.998Z,29.67
2017-12-21T02:04:20.414Z,39.80
2017-12-21T02:06:48.877Z,41.17
2017-12-21T02:09:18.209Z,34.50
2017-12-21T02:11:46.894Z,36.97
2017-12-21T02:14:15.525Z,29.33
2017-12-21T02:16:43.941Z,43.27
2017-12-21T02:19:12.385Z,43.00
2017-12-21T02:21:41.670Z,35.97
2017-12-21T02:24:10.115Z,33.23
2017-12-21T02:26:38.544Z,35.73
2017-12-21T02:29:07.091Z,32.43
2017-12-21T02:31:36.476Z,30.63
2017-12-21T02:34:05.470Z,39.93
2017-12-21T02:36:34.048Z,37.43
2017-12-21T02:39:02.566Z,32.27
2017-12-21T02:41:31.050Z,38.53
2017-12-21T02:43:59.685Z,35.63
2017-12-21T02:46:28.154Z,28.30
2017-12-21T02:48:56.586Z,37.53
2017-12-21T02:51:25.073Z,46.87
2017-12-21T02:53:53.543Z,35.83
2017-12-21T02:56:21.988Z,17.63
2017-12-21T02:58:50.788Z,17.00
2017-12-21T03:01:20.004Z,44.93
2017-12-21T03:03:48.465Z,43.40
2017-12-21T03:06:17.032Z,39.47
2017-12-21T03:08:45.484Z,41.83
2017-12-21T03:11:13.986Z,35.03
2017-12-21T03:13:43.251Z,40.60
2017-12-21T03:16:11.935Z,42.67
2017-12-21T03:18:40.362Z,38.17
2017-12-21T03:21:09.038Z,39.27
2017-12-21T03:23:37.557Z,40.97
2017-12-21T03:26:05.979Z,46.30
2017-12-21T03:28:35.322Z,43.00
2017-12-21T03:31:03.744Z,36.70
2017-12-21T03:33:32.150Z,33.90
2017-12-21T03:36:01.110Z,13.43
2017-12-21T03:38:30.999Z,29.03
2017-12-21T03:40:59.384Z,30.33
2017-12-21T03:43:27.954Z,25.40
2017-12-21T03:45:56.456Z,27.40
2017-12-21T03:48:24.914Z,11.90
2017-12-21T03:50:53.696Z,31.97
2017-12-21T03:53:22.151Z,23.87
2017-12-21T03:55:51.375Z,24.33
2017-12-21T03:58:19.812Z,7.07
2017-12-21T04:00:48.315Z,23.97
2017-12-21T04:03:17.512Z,12.87
2017-12-21T04:05:47.058Z,25.47
2017-12-21T04:08:15.469Z,29.63
2017-12-21T04:10:43.878Z,39.47
2017-12-21T04:13:12.602Z,13.93
2017-12-21T04:15:41.217Z,18.23
2017-12-21T04:18:10.465Z,21.30
2017-12-21T04:20:39.306Z,21.57
2017-12-21T04:23:07.733Z,28.53
2017-12-21T04:25:36.185Z,26.50
2017-12-21T04:28:04.746Z,23.67
2017-12-21T04:30:33.167Z,31.07
2017-12-21T04:33:02.382Z,29.80
2017-12-21T04:35:30.936Z,20.97
2017-12-21T04:38:00.637Z,29.77
2017-12-21T04:40:29.080Z,26.60
2017-12-21T04:42:57.873Z,25.93
2017-12-21T04:45:26.337Z,24.70
2017-12-21T04:47:54.927Z,24.60
2017-12-21T04:50:24.328Z,22.17
2017-12-21T04:52:52.746Z,20.77
2017-12-21T04:55:21.183Z,23.10
2017-12-21T04:57:50.030Z,8.40
2017-12-21T05:00:18.613Z,20.30
2017-12-21T05:02:47.821Z,29.20
2017-12-21T05:05:16.425Z,28.00
2017-12-21T05:07:44.860Z,24.30
2017-12-21T05:10:13.323Z,23.20
2017-12-21T05:12:41.915Z,24.10
2017-12-21T05:15:11.005Z,9.37
2017-12-21T05:17:39.431Z,21.30
2017-12-21T05:20:07.936Z,23.73
2017-12-21T05:22:36.379Z,12.77
2017-12-21T05:25:05.614Z,21.60
2017-12-21T05:27:34.799Z,20.07
2017-12-21T05:30:04.039Z,10.67
2017-12-21T05:32:32.487Z,23.20
2017-12-21T05:35:01.068Z,14.40
2017-12-21T05:37:29.455Z,22.43
2017-12-21T05:40:02.587Z,6.40
2017-12-21T05:42:31.206Z,10.77
2017-12-21T05:44:59.665Z,22.83
2017-12-21T05:47:28.833Z,15.23
2017-12-21T05:49:58.211Z,16.07
2017-12-21T05:52:26.780Z,12.03
2017-12-21T05:54:55.255Z,21.27
2017-12-21T05:57:23.733Z,18.87
2017-12-21T05:59:52.249Z,12.27
2017-12-21T06:02:20.673Z,17.10
2017-12-21T06:04:49.224Z,12.13
2017-12-21T06:07:17.667Z,18.80
2017-12-21T06:09:46.059Z,21.60
2017-12-21T06:12:14.520Z,10.93
2017-12-21T06:14:42.925Z,19.57
2017-12-21T06:17:11.570Z,15.87
2017-12-21T06:19:40.829Z,17.67
2017-12-21T06:22:09.250Z,9.57
2017-12-21T06:24:38.435Z,21.20
2017-12-21T06:27:08.294Z,14.37
2017-12-21T06:29:36.765Z,15.47
2017-12-21T06:32:05.182Z,19.30
2017-12-21T06:34:33.614Z,19.73
2017-12-21T06:37:02.021Z,17.50
2017-12-21T06:39:30.422Z,15.53
2017-12-21T06:41:59.642Z,15.73
2017-12-21T06:44:29.878Z,16.53
2017-12-21T06:46:58.270Z,14.10
2017-12-21T06:49:26.840Z,20.33
2017-12-21T06:51:56.425Z,17.70
2017-12-21T06:54:24.836Z,14.33
2017-12-21T06:56:53.436Z,12.63
2017-12-21T06:59:21.898Z,19.80
2017-12-21T07:01:52.105Z,12.43
2017-12-21T07:04:20.670Z,13.07
2017-12-21T07:06:49.447Z,14.13
2017-12-21T07:09:17.864Z,8.80
2017-12-21T07:11:46.497Z,16.93
2017-12-21T07:14:14.990Z,6.67
2017-12-21T07:16:43.425Z,13.20
2017-12-21T07:19:11.995Z,11.30
2017-12-21T07:21:40.951Z,14.43
2017-12-21T07:24:09.380Z,17.20
2017-12-21T07:26:38.496Z,18.70
2017-12-21T07:29:07.795Z,18.87
2017-12-21T07:31:36.300Z,17.50
2017-12-21T07:34:04.895Z,17.13
2017-12-21T07:36:34.297Z,18.60
2017-12-21T07:39:02.850Z,17.60
2017-12-21T07:41:31.455Z,12.40
2017-12-21T07:44:00.267Z,16.10
2017-12-21T07:46:29.434Z,15.73
2017-12-21T07:48:57.861Z,19.53
2017-12-21T07:51:27.773Z,18.90
2017-12-21T07:53:56.961Z,24.27
2017-12-21T07:56:27.604Z,15.20
2017-12-21T07:58:56.773Z,9.03
2017-12-21T08:01:25.172Z,15.73
2017-12-21T08:03:54.501Z,7.57
2017-12-21T08:06:22.908Z,20.80
2017-12-21T08:08:51.331Z,10.77
2017-12-21T08:11:20.737Z,9.80
2017-12-21T08:13:49.939Z,18.20
2017-12-21T08:16:19.100Z,20.27
2017-12-21T08:18:47.630Z,9.90
2017-12-21T08:21:16.083Z,20.00
2017-12-21T08:23:45.267Z,18.90
2017-12-21T08:26:13.708Z,15.93
2017-12-21T08:28:42.106Z,12.47
2017-12-21T08:31:10.527Z,12.73
2017-12-21T08:33:39.439Z,17.73
2017-12-21T08:36:07.837Z,9.40
2017-12-21T08:38:36.266Z,17.40
2017-12-21T08:41:04.806Z,15.73
2017-12-21T08:43:33.194Z,17.17
2017-12-21T08:46:01.999Z,19.77
2017-12-21T08:48:30.476Z,18.70
2017-12-21T08:50:58.994Z,12.03
2017-12-21T08:53:27.422Z,20.53
2017-12-21T08:55:56.057Z,15.13
2017-12-21T08:58:25.257Z,11.33
2017-12-21T09:00:54.763Z,22.90
2017-12-21T09:03:23.297Z,12.37
2017-12-21T09:05:51.729Z,15.73
2017-12-21T09:08:21.020Z,14.30
2017-12-21T09:10:50.019Z,18.53
2017-12-21T09:13:18.419Z,16.83
2017-12-21T09:15:46.843Z,15.03
2017-12-21T09:18:15.344Z,16.60
2017-12-21T09:20:43.751Z,18.53
2017-12-21T09:23:12.168Z,13.50
2017-12-21T09:25:40.680Z,14.17
2017-12-21T09:28:09.071Z,12.50
2017-12-21T09:30:38.300Z,12.57
2017-12-21T09:33:06.859Z,12.90
2017-12-21T09:35:36.229Z,18.37
2017-12-21T09:38:04.659Z,16.43
2017-12-21T09:40:33.322Z,15.13
2017-12-21T09:43:02.556Z,21.17
2017-12-21T09:45:31.013Z,18.87
2017-12-21T09:47:59.975Z,17.67
2017-12-21T09:50:28.371Z,16.40
2017-12-21T09:52:57.552Z,17.00
2017-12-21T09:55:26.014Z,12.47
2017-12-21T09:57:54.441Z,10.40
2017-12-21T10:00:23.225Z,18.80
2017-12-21T10:02:52.479Z,10.33
2017-12-21T10:05:20.965Z,19.37
2017-12-21T10:07:49.397Z,14.13
2017-12-21T10:10:17.870Z,16.20
2017-12-21T10:12:46.299Z,17.73
2017-12-21T10:15:14.687Z,14.70
2017-12-21T10:17:43.372Z,17.87
2017-12-21T10:20:11.757Z,22.30
2017-12-21T10:22:40.131Z,16.30
2017-12-21T10:25:09.117Z,14.67
2017-12-21T10:27:37.576Z,16.27
2017-12-21T10:30:06.013Z,15.47
2017-12-21T10:32:35.574Z,20.67
2017-12-21T10:35:04.003Z,20.33
2017-12-21T10:37:32.471Z,22.80
2017-12-21T10:40:01.767Z,22.23
2017-12-21T10:42:30.155Z,17.40
2017-12-21T10:44:59.319Z,18.20
2017-12-21T10:47:27.863Z,18.20
2017-12-21T10:49:56.731Z,4.10
2017-12-21T10:52:25.885Z,25.80
2017-12-21T10:54:55.702Z,17.00
2017-12-21T10:57:24.099Z,19.63
2017-12-21T10:59:52.491Z,24.50
2017-12-21T11:02:21.854Z,14.13
2017-12-21T11:04:50.262Z,5.63
2017-12-21T11:07:18.721Z,10.43
2017-12-21T11:09:47.197Z,22.20
2017-12-21T11:12:17.198Z,12.83
2017-12-21T11:14:45.932Z,17.93
2017-12-21T11:17:14.825Z,12.33
2017-12-21T11:19:43.230Z,10.23
2017-12-21T11:22:12.558Z,13.30
2017-12-21T11:24:41.161Z,6.60
2017-12-21T11:27:09.590Z,18.27
2017-12-21T11:29:38.007Z,11.20
2017-12-21T11:32:06.577Z,13.80
2017-12-21T11:34:35.010Z,17.87
2017-12-21T11:37:04.184Z,13.30
2017-12-21T11:39:32.777Z,12.93
2017-12-21T11:42:01.193Z,15.23
2017-12-21T11:44:29.673Z,16.23
2017-12-21T11:46:58.207Z,16.63
2017-12-21T11:49:26.616Z,12.37
2017-12-21T11:51:56.400Z,15.17
2017-12-21T11:54:25.559Z,9.30
2017-12-21T11:56:54.217Z,16.50
2017-12-21T11:59:24.208Z,13.87
2017-12-21T12:01:52.699Z,14.67
2017-12-21T12:04:22.250Z,11.17
2017-12-21T12:06:50.660Z,18.47
2017-12-21T12:09:19.235Z,12.37
2017-12-21T12:11:48.432Z,13.07
2017-12-21T12:14:16.813Z,10.90
2017-12-21T12:16:46.060Z,16.47
2017-12-21T12:19:14.569Z,18.53
2017-12-21T12:21:43.069Z,14.53
2017-12-21T12:24:11.527Z,15.00
2017-12-21T12:26:40.061Z,14.80
2017-12-21T12:29:08.773Z,16.90
2017-12-21T12:31:37.997Z,12.27
2017-12-21T12:34:07.286Z,16.03
2017-12-21T12:36:35.715Z,23.30
2017-12-21T12:39:04.350Z,19.53
2017-12-21T12:41:32.880Z,12.20
2017-12-21T12:44:01.322Z,12.20
2017-12-21T12:46:29.940Z,12.27
2017-12-21T12:48:59.228Z,14.40
2017-12-21T12:51:27.694Z,12.67
2017-12-21T12:53:57.296Z,16.13
2017-12-21T12:56:25.691Z,10.80
2017-12-21T12:58:54.145Z,13.30
2017-12-21T13:01:22.688Z,12.07
2017-12-21T13:03:51.192Z,18.10
2017-12-21T13:06:20.092Z,12.03
2017-12-21T13:08:49.017Z,17.63
2017-12-21T13:11:17.417Z,16.10
2017-12-21T13:13:45.859Z,13.70
2017-12-21T13:16:14.440Z,15.97
2017-12-21T13:18:42.917Z,15.17
2017-12-21T13:21:11.359Z,20.07
2017-12-21T13:23:39.847Z,24.40
2017-12-21T13:26:09.043Z,15.03
2017-12-21T13:28:38.203Z,16.67
2017-12-21T13:31:06.830Z,15.30
2017-12-21T13:33:35.997Z,13.67
2017-12-21T13:36:04.441Z,12.90
2017-12-21T13:38:32.891Z,11.90
2017-12-21T13:41:02.062Z,13.13
2017-12-21T13:43:31.427Z,13.27
2017-12-21T13:46:00.871Z,13.13
2017-12-21T13:48:29.330Z,12.17
2017-12-21T13:50:57.745Z,12.37
2017-12-21T13:53:27.297Z,11.23
2017-12-21T13:55:56.262Z,14.80
2017-12-21T13:58:24.851Z,14.10
2017-12-21T14:00:54.407Z,11.63
2017-12-21T14:03:22.834Z,13.47
2017-12-21T14:05:51.274Z,10.10
2017-12-21T14:08:19.987Z,16.83
2017-12-21T14:10:49.148Z,15.70
2017-12-21T14:13:18.605Z,11.63
2017-12-21T14:15:47.296Z,17.10
2017-12-21T14:18:16.528Z,13.77
2017-12-21T14:20:44.965Z,15.83
2017-12-21T14:23:14.389Z,19.27
2017-12-21T14:25:42.908Z,14.40
2017-12-21T14:28:11.322Z,13.33
2017-12-21T14:30:40.921Z,18.10
2017-12-21T14:33:10.194Z,12.30
2017-12-21T14:35:38.578Z,12.10
2017-12-21T14:38:07.971Z,15.17
2017-12-21T14:40:37.217Z,17.03
2017-12-21T14:43:06.471Z,13.00
2017-12-21T14:45:35.103Z,15.33
2017-12-21T14:48:03.713Z,20.77
2017-12-21T14:50:32.133Z,12.50
2017-12-21T14:53:01.012Z,9.80
2017-12-21T14:55:29.469Z,10.80
2017-12-21T14:57:58.518Z,16.03
2017-12-21T15:00:27.923Z,14.33
2017-12-21T15:02:57.106Z,10.80
2017-12-21T15:05:26.285Z,13.80
2017-12-21T15:07:54.810Z,15.30
2017-12-21T15:10:23.993Z,17.17
2017-12-21T15:12:53.155Z,13.33
2017-12-21T15:15:21.757Z,13.53
2017-12-21T15:17:50.573Z,12.13
2017-12-21T15:20:20.692Z,11.40
2017-12-21T15:22:52.220Z,13.50
2017-12-21T15:25:20.639Z,13.10
2017-12-21T15:27:49.054Z,14.37
2017-12-21T15:30:18.385Z,14.60
2017-12-21T15:32:47.590Z,15.00
2017-12-21T15:35:18.592Z,17.00
2017-12-21T15:37:47.829Z,16.60
2017-12-21T15:40:16.238Z,16.50
2017-12-21T15:42:44.734Z,25.60
2017-12-21T15:45:13.187Z,17.63
2017-12-21T15:47:41.713Z,14.67
2017-12-21T15:50:10.136Z,18.23
2017-12-21T15:52:39.491Z,14.67
2017-12-21T15:55:07.999Z,13.97
2017-12-21T15:57:36.400Z,11.67
2017-12-21T16:00:05.733Z,10.33
2017-12-21T16:02:34.125Z,12.03
2017-12-21T16:05:02.532Z,9.77
2017-12-21T16:07:31.251Z,13.80
2017-12-21T16:10:00.561Z,12.40
2017-12-21T16:12:29.030Z,12.77
2017-12-21T16:14:57.519Z,9.90
2017-12-21T16:17:25.912Z,13.07
2017-12-21T16:19:54.326Z,12.97
2017-12-21T16:22:22.806Z,12.63
2017-12-21T16:24:51.492Z,13.90
2017-12-21T16:27:19.893Z,10.93
2017-12-21T16:29:48.469Z,10.73
2017-12-21T16:32:16.889Z,10.77
2017-12-21T16:34:45.984Z,11.27
2017-12-21T16:37:14.618Z,9.07
2017-12-21T16:39:43.028Z,9.50
2017-12-21T16:42:12.249Z,8.37
2017-12-21T16:44:40.792Z,15.57
2017-12-21T16:47:10.447Z,8.20
2017-12-21T16:49:39.056Z,6.83
2017-12-21T16:52:07.653Z,6.53
2017-12-21T16:54:36.077Z,6.80
2017-12-21T16:57:05.277Z,7.57
2017-12-21T16:59:34.780Z,5.67
2017-12-21T17:02:04.490Z,4.40
2017-12-21T17:04:33.695Z,4.70
2017-12-21T17:07:02.930Z,8.87
2017-12-21T17:09:31.359Z,6.63
2017-12-21T17:12:00.548Z,6.23
2017-12-21T17:14:30.906Z,5.03
2017-12-21T17:16:59.386Z,6.80
2017-12-21T17:19:27.830Z,8.90
2017-12-21T17:21:57.336Z,6.20
2017-12-21T17:24:25.784Z,9.70
2017-12-21T17:26:54.225Z,7.30
2017-12-21T17:29:22.991Z,8.43
2017-12-21T17:31:52.188Z,7.17
2017-12-21T17:34:21.407Z,10.93
2017-12-21T17:36:49.972Z,8.40
2017-12-21T17:39:19.581Z,14.00
2017-12-21T17:41:48.736Z,15.50
2017-12-21T17:44:17.206Z,12.47
2017-12-21T17:46:45.619Z,11.30
2017-12-21T17:49:14.055Z,15.33
2017-12-21T17:51:42.547Z,14.27
2017-12-21T17:54:10.987Z,14.97
2017-12-21T17:56:39.425Z,16.60
2017-12-21T17:59:07.901Z,15.40
2017-12-21T18:01:36.307Z,14.10
2017-12-21T18:04:05.175Z,22.90
2017-12-21T18:06:33.661Z,18.87
2017-12-21T18:09:02.066Z,24.23
2017-12-21T18:11:31.278Z,28.37
2017-12-21T18:13:59.815Z,22.30
2017-12-21T18:16:28.243Z,19.10
2017-12-21T18:18:57.157Z,15.13
2017-12-21T18:21:25.714Z,16.17
2017-12-21T18:23:54.126Z,16.47
2017-12-21T18:26:22.522Z,18.00
2017-12-21T18:28:51.297Z,21.70
2017-12-21T18:31:19.745Z,20.10
2017-12-21T18:33:48.159Z,18.40
2017-12-21T18:36:16.637Z,25.93
2017-12-21T18:38:45.443Z,18.60
2017-12-21T18:41:13.873Z,14.97
2017-12-21T18:43:43.189Z,16.37
2017-12-21T18:46:12.559Z,18.60
2017-12-21T18:48:42.165Z,17.07
2017-12-21T18:51:11.529Z,17.67
2017-12-21T18:53:40.122Z,14.47
2017-12-21T18:56:08.531Z,10.77
2017-12-21T18:58:37.893Z,15.70
2017-12-21T19:01:06.363Z,18.10
2017-12-21T19:03:34.796Z,14.17
2017-12-21T19:06:03.663Z,20.60
2017-12-21T19:08:32.090Z,16.50
2017-12-21T19:11:00.506Z,15.37
2017-12-21T19:13:29.092Z,18.47
2017-12-21T19:15:57.508Z,17.87
2017-12-21T19:18:26.710Z,18.30
2017-12-21T19:20:55.929Z,14.70
2017-12-21T19:23:24.402Z,16.93
2017-12-21T19:25:52.888Z,12.00
2017-12-21T19:28:21.528Z,16.97
2017-12-21T19:30:50.043Z,15.70
2017-12-21T19:33:18.513Z,19.70
2017-12-21T19:35:48.356Z,16.83
2017-12-21T19:38:16.820Z,19.60
2017-12-21T19:40:45.254Z,16.40
2017-12-21T19:43:14.663Z,19.80
2017-12-21T19:45:43.143Z,20.40
2017-12-21T19:48:12.130Z,21.77
2017-12-21T19:50:40.721Z,21.50
2017-12-21T19:53:10.939Z,23.97
2017-12-21T19:55:39.425Z,16.27
2017-12-21T19:58:08.783Z,16.97
2017-12-21T20:00:37.199Z,20.40
2017-12-21T20:03:05.605Z,21.53
2017-12-21T20:05:34.943Z,19.17
2017-12-21T20:08:03.608Z,15.70
2017-12-21T20:10:32.826Z,18.60
2017-12-21T20:13:01.542Z,21.50
2017-12-21T20:15:29.993Z,18.33
2017-12-21T20:17:58.438Z,20.10
2017-12-21T20:20:27.102Z,21.00
2017-12-21T20:22:55.521Z,17.67
2017-12-21T20:25:23.945Z,22.67
2017-12-21T20:27:52.774Z,21.13
2017-12-21T20:30:21.985Z,17.10
2017-12-21T20:32:50.491Z,25.40
2017-12-21T20:35:18.931Z,21.23
2017-12-21T20:37:47.278Z,17.17
2017-12-21T20:40:15.596Z,24.50
2017-12-21T20:42:44.047Z,20.03
2017-12-21T20:45:12.540Z,25.60
2017-12-21T20:47:40.956Z,20.93
2017-12-21T20:50:09.595Z,18.23
2017-12-21T20:52:38.039Z,16.70
2017-12-21T20:55:06.440Z,22.07
2017-12-21T20:57:35.105Z,21.23
2017-12-21T21:00:03.583Z,16.70
2017-12-21T21:02:32.010Z,16.97
2017-12-21T21:05:01.376Z,18.57
2017-12-21T21:07:29.780Z,14.77
2017-12-21T21:09:58.438Z,17.47
2017-12-21T21:12:27.285Z,14.63
2017-12-21T21:14:56.437Z,17.77
2017-12-21T21:17:24.876Z,17.23
2017-12-21T21:19:53.435Z,21.00
2017-12-21T21:22:22.925Z,15.17
2017-12-21T21:24:52.128Z,20.53
2017-12-21T21:27:21.539Z,21.10
2017-12-21T21:29:49.916Z,20.30
2017-12-21T21:32:19.125Z,20.30
2017-12-21T21:34:48.727Z,24.10
2017-12-21T21:37:17.941Z,27.00
2017-12-21T21:39:46.361Z,21.50
2017-12-21T21:42:15.108Z,29.17
2017-12-21T21:44:43.536Z,28.13
2017-12-21T21:47:12.005Z,32.67
2017-12-21T21:49:40.571Z,32.70
2017-12-21T21:52:08.960Z,33.60
2017-12-21T21:54:37.396Z,31.80
2017-12-21T21:57:06.608Z,41.30
2017-12-21T21:59:35.020Z,30.47
2017-12-21T22:02:03.455Z,29.83
2017-12-21T22:04:32.702Z,32.00
2017-12-21T22:07:01.120Z,26.97
2017-12-21T22:09:29.563Z,29.50
2017-12-21T22:11:58.659Z,24.07
2017-12-21T22:14:27.055Z,26.93
2017-12-21T22:16:55.464Z,27.10
2017-12-21T22:19:24.773Z,19.93
2017-12-21T22:21:53.179Z,26.53
2017-12-21T22:24:21.667Z,33.60
2017-12-21T22:26:50.109Z,24.50
2017-12-21T22:29:19.300Z,24.43
2017-12-21T22:31:48.443Z,27.33
2017-12-21T22:34:16.960Z,26.10
2017-12-21T22:36:45.730Z,31.13
2017-12-21T22:39:14.146Z,29.37
2017-12-21T22:41:44.113Z,31.23
2017-12-21T22:44:12.526Z,22.00
2017-12-21T22:46:40.927Z,25.80
2017-12-21T22:49:10.273Z,35.03
2017-12-21T22:51:38.717Z,32.03
2017-12-21T22:54:07.122Z,31.43
2017-12-21T22:56:35.584Z,37.40
2017-12-21T22:59:05.069Z,31.67
2017-12-21T23:01:34.687Z,35.33
2017-12-21T23:04:03.206Z,34.37
2017-12-21T23:06:31.670Z,32.40
2017-12-21T23:09:00.061Z,31.30
2017-12-21T23:11:28.501Z,38.80
2017-12-21T23:13:57.859Z,39.13
2017-12-21T23:16:26.254Z,32.03
2017-12-21T23:18:54.818Z,35.60
2017-12-21T23:21:23.202Z,36.87
2017-12-21T23:23:51.596Z,29.40
2017-12-21T23:26:20.199Z,39.30
2017-12-21T23:28:49.348Z,36.20
2017-12-21T23:31:17.730Z,36.63
2017-12-21T23:33:46.260Z,29.50
2017-12-21T23:36:15.460Z,31.90
2017-12-21T23:38:44.639Z,25.37
2017-12-21T23:41:13.193Z,34.10
2017-12-21T23:43:41.567Z,33.10
2017-12-21T23:46:09.966Z,31.60
2017-12-21T23:48:38.479Z,23.40
2017-12-21T23:51:07.802Z,30.97
2017-12-21T23:53:36.253Z,28.10
2017-12-21T23:56:05.514Z,28.43
2017-12-21T23:58:33.921Z,30.70
